sensor_id;sensor_type;location;lat;lon;timestamp;P1;durP1;ratioP1;P2;durP2;ratioP2
18072;SDS011;9161;47.348;9.648;2023-07-28T00:03:44;10.33;;;4.87;;
18072;SDS011;9161;47.348;9.648;2023-07-28T00:08:46;9.03;;;5.37;;
18072;SDS011;9161;47.348;9.648;2023-07-28T00:13:50;9.93;;;6.10;;
18072;SDS011;9161;47.348;9.648;2023-07-28T00:18:52;10.73;;;4.83;;
18072;SDS011;9161;47.348;9.648;2023-07-28T00:23:54;12.10;;;6.00;;
18072;SDS011;9161;47.348;9.648;2023-07-28T00:28:57;12.20;;;5.00;;
18072;SDS011;9161;47.348;9.648;2023-07-28T00:34:00;9.20;;;4.67;;
18072;SDS011;9161;47.348;9.648;2023-07-28T00:39:03;6.77;;;3.90;;
18072;SDS011;9161;47.348;9.648;2023-07-28T00:44:07;7.80;;;3.90;;
18072;SDS011;9161;47.348;9.648;2023-07-28T00:49:09;6.93;;;4.00;;
18072;SDS011;9161;47.348;9.648;2023-07-28T00:54:10;6.60;;;3.77;;
18072;SDS011;9161;47.348;9.648;2023-07-28T00:59:14;8.53;;;3.93;;
18072;SDS011;9161;47.348;9.648;2023-07-28T01:04:17;13.10;;;4.27;;
18072;SDS011;9161;47.348;9.648;2023-07-28T01:09:21;5.20;;;3.50;;
18072;SDS011;9161;47.348;9.648;2023-07-28T01:14:31;8.43;;;4.70;;
18072;SDS011;9161;47.348;9.648;2023-07-28T01:19:33;9.37;;;4.50;;
18072;SDS011;9161;47.348;9.648;2023-07-28T01:24:37;9.27;;;4.13;;
18072;SDS011;9161;47.348;9.648;2023-07-28T01:29:52;6.50;;;3.97;;
18072;SDS011;9161;47.348;9.648;2023-07-28T01:34:54;6.70;;;3.77;;
18072;SDS011;9161;47.348;9.648;2023-07-28T01:39:58;4.90;;;2.90;;
18072;SDS011;9161;47.348;9.648;2023-07-28T01:45:01;4.77;;;1.90;;
18072;SDS011;9161;47.348;9.648;2023-07-28T01:50:04;4.07;;;1.53;;
18072;SDS011;9161;47.348;9.648;2023-07-28T01:55:07;2.40;;;1.53;;
18072;SDS011;9161;47.348;9.648;2023-07-28T02:00:11;6.20;;;1.47;;
18072;SDS011;9161;47.348;9.648;2023-07-28T02:05:14;4.63;;;2.17;;
18072;SDS011;9161;47.348;9.648;2023-07-28T02:10:18;7.23;;;1.93;;
18072;SDS011;9161;47.348;9.648;2023-07-28T02:15:22;9.40;;;3.30;;
18072;SDS011;9161;47.348;9.648;2023-07-28T02:20:24;3.93;;;2.37;;
18072;SDS011;9161;47.348;9.648;2023-07-28T02:25:29;3.47;;;1.80;;
18072;SDS011;9161;47.348;9.648;2023-07-28T02:30:33;3.47;;;1.40;;
18072;SDS011;9161;47.348;9.648;2023-07-28T02:35:35;2.47;;;1.47;;
18072;SDS011;9161;47.348;9.648;2023-07-28T02:40:37;2.83;;;1.57;;
18072;SDS011;9161;47.348;9.648;2023-07-28T02:45:41;3.77;;;1.43;;
18072;SDS011;9161;47.348;9.648;2023-07-28T02:50:45;2.20;;;1.63;;
18072;SDS011;9161;47.348;9.648;2023-07-28T02:55:48;2.20;;;1.57;;
18072;SDS011;9161;47.348;9.648;2023-07-28T03:00:51;2.10;;;1.50;;
18072;SDS011;9161;47.348;9.648;2023-07-28T03:05:53;4.20;;;1.77;;
18072;SDS011;9161;47.348;9.648;2023-07-28T03:10:56;2.27;;;1.43;;
18072;SDS011;9161;47.348;9.648;2023-07-28T03:15:59;2.40;;;1.40;;
18072;SDS011;9161;47.348;9.648;2023-07-28T03:21:01;3.37;;;2.07;;
18072;SDS011;9161;47.348;9.648;2023-07-28T03:26:04;3.57;;;2.07;;
18072;SDS011;9161;47.348;9.648;2023-07-28T03:31:07;3.67;;;1.83;;
18072;SDS011;9161;47.348;9.648;2023-07-28T03:36:09;4.57;;;2.17;;
18072;SDS011;9161;47.348;9.648;2023-07-28T03:41:11;5.40;;;1.70;;
18072;SDS011;9161;47.348;9.648;2023-07-28T03:46:15;2.87;;;1.70;;
18072;SDS011;9161;47.348;9.648;2023-07-28T03:51:18;2.37;;;1.50;;
18072;SDS011;9161;47.348;9.648;2023-07-28T03:56:20;2.37;;;1.50;;
18072;SDS011;9161;47.348;9.648;2023-07-28T04:01:23;2.70;;;1.73;;
18072;SDS011;9161;47.348;9.648;2023-07-28T04:06:39;4.50;;;1.70;;
18072;SDS011;9161;47.348;9.648;2023-07-28T04:11:42;6.10;;;2.60;;
18072;SDS011;9161;47.348;9.648;2023-07-28T04:16:45;5.43;;;2.10;;
18072;SDS011;9161;47.348;9.648;2023-07-28T04:21:47;4.53;;;2.20;;
18072;SDS011;9161;47.348;9.648;2023-07-28T04:26:49;4.90;;;2.00;;
18072;SDS011;9161;47.348;9.648;2023-07-28T04:31:52;4.23;;;2.60;;
18072;SDS011;9161;47.348;9.648;2023-07-28T04:36:55;3.63;;;2.30;;
18072;SDS011;9161;47.348;9.648;2023-07-28T04:41:58;4.47;;;2.20;;
18072;SDS011;9161;47.348;9.648;2023-07-28T04:47:02;6.20;;;2.73;;
18072;SDS011;9161;47.348;9.648;2023-07-28T04:52:04;4.17;;;1.90;;
18072;SDS011;9161;47.348;9.648;2023-07-28T04:57:06;4.03;;;2.23;;
18072;SDS011;9161;47.348;9.648;2023-07-28T05:02:10;5.23;;;2.20;;
18072;SDS011;9161;47.348;9.648;2023-07-28T05:07:12;6.60;;;2.47;;
18072;SDS011;9161;47.348;9.648;2023-07-28T05:12:14;5.40;;;2.40;;
18072;SDS011;9161;47.348;9.648;2023-07-28T05:17:18;7.53;;;1.83;;
18072;SDS011;9161;47.348;9.648;2023-07-28T05:22:22;5.47;;;2.47;;
18072;SDS011;9161;47.348;9.648;2023-07-28T05:27:24;4.10;;;2.00;;
18072;SDS011;9161;47.348;9.648;2023-07-28T05:32:28;5.00;;;2.40;;
18072;SDS011;9161;47.348;9.648;2023-07-28T05:37:30;4.30;;;2.00;;
18072;SDS011;9161;47.348;9.648;2023-07-28T05:42:32;3.67;;;2.03;;
18072;SDS011;9161;47.348;9.648;2023-07-28T05:47:35;6.20;;;2.30;;
18072;SDS011;9161;47.348;9.648;2023-07-28T05:52:38;3.80;;;2.20;;
18072;SDS011;9161;47.348;9.648;2023-07-28T05:57:40;5.43;;;2.10;;
18072;SDS011;9161;47.348;9.648;2023-07-28T06:02:44;3.43;;;2.27;;
18072;SDS011;9161;47.348;9.648;2023-07-28T06:07:46;2.97;;;2.00;;
18072;SDS011;9161;47.348;9.648;2023-07-28T06:12:48;4.57;;;2.40;;
18072;SDS011;9161;47.348;9.648;2023-07-28T06:17:51;6.40;;;2.87;;
18072;SDS011;9161;47.348;9.648;2023-07-28T06:22:54;5.60;;;2.70;;
18072;SDS011;9161;47.348;9.648;2023-07-28T06:27:56;4.07;;;2.30;;
18072;SDS011;9161;47.348;9.648;2023-07-28T06:32:59;4.60;;;2.60;;
18072;SDS011;9161;47.348;9.648;2023-07-28T06:38:03;6.40;;;2.80;;
18072;SDS011;9161;47.348;9.648;2023-07-28T06:43:05;4.27;;;2.53;;
18072;SDS011;9161;47.348;9.648;2023-07-28T06:48:09;5.70;;;2.60;;
18072;SDS011;9161;47.348;9.648;2023-07-28T06:53:11;5.47;;;2.73;;
18072;SDS011;9161;47.348;9.648;2023-07-28T06:58:13;4.53;;;2.20;;
18072;SDS011;9161;47.348;9.648;2023-07-28T07:03:18;11.60;;;3.57;;
18072;SDS011;9161;47.348;9.648;2023-07-28T07:08:20;3.13;;;2.10;;
18072;SDS011;9161;47.348;9.648;2023-07-28T07:13:23;4.57;;;2.00;;
18072;SDS011;9161;47.348;9.648;2023-07-28T07:18:26;3.40;;;1.97;;
18072;SDS011;9161;47.348;9.648;2023-07-28T07:23:28;5.03;;;2.27;;
18072;SDS011;9161;47.348;9.648;2023-07-28T07:28:30;2.67;;;1.80;;
18072;SDS011;9161;47.348;9.648;2023-07-28T07:33:34;4.17;;;2.67;;
18072;SDS011;9161;47.348;9.648;2023-07-28T07:38:36;6.33;;;2.90;;
18072;SDS011;9161;47.348;9.648;2023-07-28T07:43:38;8.00;;;2.50;;
18072;SDS011;9161;47.348;9.648;2023-07-28T07:48:42;7.73;;;2.90;;
18072;SDS011;9161;47.348;9.648;2023-07-28T07:53:44;3.90;;;2.60;;
18072;SDS011;9161;47.348;9.648;2023-07-28T07:58:46;6.97;;;2.80;;
18072;SDS011;9161;47.348;9.648;2023-07-28T08:03:50;9.10;;;2.57;;
18072;SDS011;9161;47.348;9.648;2023-07-28T08:08:52;7.72;;;2.97;;
18072;SDS011;9161;47.348;9.648;2023-07-28T08:13:57;8.13;;;2.70;;
18072;SDS011;9161;47.348;9.648;2023-07-28T08:19:01;10.18;;;2.85;;
18072;SDS011;9161;47.348;9.648;2023-07-28T08:24:04;10.40;;;2.45;;
18072;SDS011;9161;47.348;9.648;2023-07-28T08:29:07;6.03;;;2.33;;
18072;SDS011;9161;47.348;9.648;2023-07-28T08:34:10;6.45;;;2.40;;
18072;SDS011;9161;47.348;9.648;2023-07-28T08:39:12;3.78;;;1.90;;
18072;SDS011;9161;47.348;9.648;2023-07-28T08:44:15;5.93;;;2.25;;
18072;SDS011;9161;47.348;9.648;2023-07-28T08:49:18;3.17;;;2.03;;
18072;SDS011;9161;47.348;9.648;2023-07-28T08:54:21;5.40;;;2.10;;
18072;SDS011;9161;47.348;9.648;2023-07-28T08:59:23;6.28;;;2.17;;
18072;SDS011;9161;47.348;9.648;2023-07-28T09:04:28;7.20;;;2.28;;
18072;SDS011;9161;47.348;9.648;2023-07-28T09:09:31;6.22;;;2.00;;
18072;SDS011;9161;47.348;9.648;2023-07-28T09:14:34;4.80;;;2.28;;
18072;SDS011;9161;47.348;9.648;2023-07-28T09:19:51;4.47;;;2.28;;
18072;SDS011;9161;47.348;9.648;2023-07-28T09:24:54;3.72;;;1.90;;
18072;SDS011;9161;47.348;9.648;2023-07-28T09:29:57;4.20;;;1.85;;
18072;SDS011;9161;47.348;9.648;2023-07-28T09:35:07;8.88;;;2.20;;
18072;SDS011;9161;47.348;9.648;2023-07-28T09:40:11;7.07;;;2.20;;
18072;SDS011;9161;47.348;9.648;2023-07-28T09:45:15;3.17;;;2.05;;
18072;SDS011;9161;47.348;9.648;2023-07-28T09:50:39;4.65;;;2.10;;
18072;SDS011;9161;47.348;9.648;2023-07-28T09:55:43;5.50;;;2.40;;
18072;SDS011;9161;47.348;9.648;2023-07-28T10:00:45;4.50;;;2.08;;
18072;SDS011;9161;47.348;9.648;2023-07-28T10:05:49;3.78;;;2.00;;
18072;SDS011;9161;47.348;9.648;2023-07-28T10:10:51;6.03;;;2.60;;
18072;SDS011;9161;47.348;9.648;2023-07-28T10:15:54;6.32;;;2.47;;
18072;SDS011;9161;47.348;9.648;2023-07-28T10:20:58;5.43;;;2.97;;
18072;SDS011;9161;47.348;9.648;2023-07-28T10:26:07;5.97;;;2.55;;
18072;SDS011;9161;47.348;9.648;2023-07-28T10:31:11;3.60;;;2.45;;
18072;SDS011;9161;47.348;9.648;2023-07-28T10:36:15;4.13;;;2.60;;
18072;SDS011;9161;47.348;9.648;2023-07-28T10:41:19;4.10;;;2.60;;
18072;SDS011;9161;47.348;9.648;2023-07-28T10:46:22;6.75;;;2.63;;
18072;SDS011;9161;47.348;9.648;2023-07-28T10:51:26;4.38;;;2.40;;
18072;SDS011;9161;47.348;9.648;2023-07-28T10:56:33;3.33;;;2.30;;
18072;SDS011;9161;47.348;9.648;2023-07-28T11:01:37;3.15;;;2.00;;
18072;SDS011;9161;47.348;9.648;2023-07-28T11:06:42;2.85;;;2.15;;
18072;SDS011;9161;47.348;9.648;2023-07-28T11:11:45;2.60;;;2.13;;
18072;SDS011;9161;47.348;9.648;2023-07-28T11:16:48;2.90;;;2.10;;
18072;SDS011;9161;47.348;9.648;2023-07-28T11:21:52;5.05;;;2.40;;
18072;SDS011;9161;47.348;9.648;2023-07-28T11:26:56;6.85;;;2.20;;
18072;SDS011;9161;47.348;9.648;2023-07-28T11:32:00;5.88;;;2.08;;
18072;SDS011;9161;47.348;9.648;2023-07-28T11:37:03;4.82;;;2.13;;
18072;SDS011;9161;47.348;9.648;2023-07-28T11:42:08;6.30;;;2.08;;
18072;SDS011;9161;47.348;9.648;2023-07-28T11:47:16;5.43;;;2.30;;
18072;SDS011;9161;47.348;9.648;2023-07-28T11:52:20;8.65;;;1.95;;
18072;SDS011;9161;47.348;9.648;2023-07-28T11:57:25;6.25;;;2.17;;
18072;SDS011;9161;47.348;9.648;2023-07-28T12:02:28;5.93;;;3.78;;
18072;SDS011;9161;47.348;9.648;2023-07-28T12:07:35;6.32;;;2.40;;
18072;SDS011;9161;47.348;9.648;2023-07-28T12:12:41;2.70;;;2.00;;
18072;SDS011;9161;47.348;9.648;2023-07-28T12:18:04;2.90;;;2.25;;
18072;SDS011;9161;47.348;9.648;2023-07-28T12:23:17;3.72;;;2.17;;
18072;SDS011;9161;47.348;9.648;2023-07-28T12:28:23;4.47;;;2.10;;
18072;SDS011;9161;47.348;9.648;2023-07-28T12:33:26;5.25;;;2.30;;
18072;SDS011;9161;47.348;9.648;2023-07-28T12:38:32;2.42;;;1.95;;
18072;SDS011;9161;47.348;9.648;2023-07-28T12:43:38;4.07;;;2.28;;
18072;SDS011;9161;47.348;9.648;2023-07-28T12:48:43;2.25;;;2.00;;
18072;SDS011;9161;47.348;9.648;2023-07-28T12:53:49;4.85;;;2.40;;
18072;SDS011;9161;47.348;9.648;2023-07-28T12:58:51;10.43;;;3.78;;
18072;SDS011;9161;47.348;9.648;2023-07-28T13:03:56;5.25;;;2.20;;
18072;SDS011;9161;47.348;9.648;2023-07-28T13:09:00;4.90;;;2.47;;
18072;SDS011;9161;47.348;9.648;2023-07-28T13:14:05;10.93;;;5.60;;
18072;SDS011;9161;47.348;9.648;2023-07-28T13:19:07;4.63;;;3.13;;
18072;SDS011;9161;47.348;9.648;2023-07-28T13:24:10;9.45;;;5.13;;
18072;SDS011;9161;47.348;9.648;2023-07-28T13:29:13;11.88;;;5.65;;
18072;SDS011;9161;47.348;9.648;2023-07-28T13:34:15;14.90;;;5.82;;
18072;SDS011;9161;47.348;9.648;2023-07-28T13:39:18;3.28;;;2.25;;
18072;SDS011;9161;47.348;9.648;2023-07-28T13:44:21;4.63;;;2.90;;
18072;SDS011;9161;47.348;9.648;2023-07-28T13:49:31;2.63;;;2.40;;
18072;SDS011;9161;47.348;9.648;2023-07-28T13:54:52;3.42;;;2.40;;
18072;SDS011;9161;47.348;9.648;2023-07-28T13:59:57;3.78;;;2.70;;
18072;SDS011;9161;47.348;9.648;2023-07-28T14:04:59;4.57;;;2.28;;
18072;SDS011;9161;47.348;9.648;2023-07-28T14:10:03;2.83;;;2.22;;
18072;SDS011;9161;47.348;9.648;2023-07-28T14:15:07;3.67;;;2.17;;
18072;SDS011;9161;47.348;9.648;2023-07-28T14:20:10;2.58;;;2.30;;
18072;SDS011;9161;47.348;9.648;2023-07-28T14:25:14;3.20;;;2.38;;
18072;SDS011;9161;47.348;9.648;2023-07-28T14:30:16;3.13;;;2.47;;
18072;SDS011;9161;47.348;9.648;2023-07-28T14:35:19;3.00;;;2.17;;
18072;SDS011;9161;47.348;9.648;2023-07-28T14:40:46;3.03;;;2.67;;
18072;SDS011;9161;47.348;9.648;2023-07-28T14:45:49;5.70;;;2.85;;
18072;SDS011;9161;47.348;9.648;2023-07-28T14:50:51;4.57;;;2.20;;
18072;SDS011;9161;47.348;9.648;2023-07-28T14:55:55;3.08;;;2.22;;
18072;SDS011;9161;47.348;9.648;2023-07-28T15:00:57;3.03;;;2.42;;
18072;SDS011;9161;47.348;9.648;2023-07-28T15:06:01;4.03;;;2.70;;
18072;SDS011;9161;47.348;9.648;2023-07-28T15:11:05;5.13;;;2.60;;
18072;SDS011;9161;47.348;9.648;2023-07-28T15:16:07;4.07;;;2.60;;
18072;SDS011;9161;47.348;9.648;2023-07-28T15:21:09;6.65;;;2.42;;
18072;SDS011;9161;47.348;9.648;2023-07-28T15:26:13;2.90;;;2.38;;
18072;SDS011;9161;47.348;9.648;2023-07-28T15:31:15;5.35;;;2.80;;
18072;SDS011;9161;47.348;9.648;2023-07-28T15:36:17;4.50;;;3.05;;
18072;SDS011;9161;47.348;9.648;2023-07-28T15:41:21;6.32;;;2.80;;
18072;SDS011;9161;47.348;9.648;2023-07-28T15:46:23;4.63;;;2.72;;
18072;SDS011;9161;47.348;9.648;2023-07-28T15:51:25;6.55;;;2.53;;
18072;SDS011;9161;47.348;9.648;2023-07-28T15:56:29;4.00;;;2.38;;
18072;SDS011;9161;47.348;9.648;2023-07-28T16:01:32;5.32;;;2.67;;
18072;SDS011;9161;47.348;9.648;2023-07-28T16:06:34;4.28;;;2.80;;
18072;SDS011;9161;47.348;9.648;2023-07-28T16:11:39;3.75;;;2.75;;
18072;SDS011;9161;47.348;9.648;2023-07-28T16:16:42;6.25;;;3.33;;
18072;SDS011;9161;47.348;9.648;2023-07-28T16:21:45;9.98;;;3.72;;
18072;SDS011;9161;47.348;9.648;2023-07-28T16:26:51;9.30;;;4.10;;
18072;SDS011;9161;47.348;9.648;2023-07-28T16:31:54;6.25;;;4.00;;
18072;SDS011;9161;47.348;9.648;2023-07-28T16:36:58;6.07;;;3.20;;
18072;SDS011;9161;47.348;9.648;2023-07-28T16:42:02;6.43;;;3.45;;
18072;SDS011;9161;47.348;9.648;2023-07-28T16:47:07;5.07;;;2.78;;
18072;SDS011;9161;47.348;9.648;2023-07-28T16:52:13;6.57;;;3.00;;
18072;SDS011;9161;47.348;9.648;2023-07-28T16:57:17;4.68;;;2.63;;
18072;SDS011;9161;47.348;9.648;2023-07-28T17:02:20;8.13;;;3.13;;
18072;SDS011;9161;47.348;9.648;2023-07-28T17:07:23;4.22;;;2.95;;
18072;SDS011;9161;47.348;9.648;2023-07-28T17:12:27;6.25;;;3.38;;
18072;SDS011;9161;47.348;9.648;2023-07-28T17:17:29;5.97;;;2.65;;
18072;SDS011;9161;47.348;9.648;2023-07-28T17:22:32;3.28;;;2.58;;
18072;SDS011;9161;47.348;9.648;2023-07-28T17:27:38;7.05;;;2.90;;
18072;SDS011;9161;47.348;9.648;2023-07-28T17:32:42;3.60;;;2.65;;
18072;SDS011;9161;47.348;9.648;2023-07-28T17:37:45;4.15;;;2.78;;
18072;SDS011;9161;47.348;9.648;2023-07-28T17:42:51;5.28;;;3.55;;
18072;SDS011;9161;47.348;9.648;2023-07-28T17:47:54;5.82;;;3.35;;
18072;SDS011;9161;47.348;9.648;2023-07-28T17:52:58;4.20;;;3.10;;
18072;SDS011;9161;47.348;9.648;2023-07-28T17:58:03;5.20;;;2.50;;
18072;SDS011;9161;47.348;9.648;2023-07-28T18:03:07;6.50;;;3.00;;
18072;SDS011;9161;47.348;9.648;2023-07-28T18:08:12;4.10;;;2.88;;
18072;SDS011;9161;47.348;9.648;2023-07-28T18:13:18;3.85;;;2.60;;
18072;SDS011;9161;47.348;9.648;2023-07-28T18:18:23;11.43;;;5.57;;
18072;SDS011;9161;47.348;9.648;2023-07-28T18:23:28;8.18;;;4.43;;
18072;SDS011;9161;47.348;9.648;2023-07-28T18:28:34;8.15;;;5.10;;
18072;SDS011;9161;47.348;9.648;2023-07-28T18:33:39;14.32;;;7.10;;
18072;SDS011;9161;47.348;9.648;2023-07-28T18:38:43;14.27;;;7.15;;
18072;SDS011;9161;47.348;9.648;2023-07-28T18:43:49;9.20;;;4.60;;
18072;SDS011;9161;47.348;9.648;2023-07-28T18:48:53;6.63;;;4.40;;
18072;SDS011;9161;47.348;9.648;2023-07-28T18:53:57;8.30;;;4.05;;
18072;SDS011;9161;47.348;9.648;2023-07-28T18:59:02;7.50;;;4.45;;
18072;SDS011;9161;47.348;9.648;2023-07-28T19:04:07;9.65;;;3.50;;
18072;SDS011;9161;47.348;9.648;2023-07-28T19:09:12;5.63;;;3.75;;
18072;SDS011;9161;47.348;9.648;2023-07-28T19:14:18;7.30;;;3.38;;
18072;SDS011;9161;47.348;9.648;2023-07-28T19:19:23;6.38;;;3.83;;
18072;SDS011;9161;47.348;9.648;2023-07-28T19:24:28;5.10;;;3.33;;
18072;SDS011;9161;47.348;9.648;2023-07-28T19:29:34;5.43;;;3.60;;
18072;SDS011;9161;47.348;9.648;2023-07-28T19:34:39;6.63;;;3.33;;
18072;SDS011;9161;47.348;9.648;2023-07-28T19:39:44;5.32;;;3.22;;
18072;SDS011;9161;47.348;9.648;2023-07-28T19:44:52;5.57;;;3.80;;
18072;SDS011;9161;47.348;9.648;2023-07-28T19:49:59;6.07;;;3.38;;
18072;SDS011;9161;47.348;9.648;2023-07-28T19:55:13;5.88;;;3.60;;
18072;SDS011;9161;47.348;9.648;2023-07-28T20:00:19;9.55;;;3.38;;
18072;SDS011;9161;47.348;9.648;2023-07-28T20:05:24;4.85;;;3.00;;
18072;SDS011;9161;47.348;9.648;2023-07-28T20:10:33;6.53;;;4.10;;
18072;SDS011;9161;47.348;9.648;2023-07-28T20:15:40;5.95;;;4.10;;
18072;SDS011;9161;47.348;9.648;2023-07-28T20:20:48;8.38;;;4.22;;
18072;SDS011;9161;47.348;9.648;2023-07-28T20:25:54;7.68;;;4.40;;
18072;SDS011;9161;47.348;9.648;2023-07-28T20:31:01;7.90;;;4.20;;
18072;SDS011;9161;47.348;9.648;2023-07-28T20:36:11;6.00;;;3.90;;
18072;SDS011;9161;47.348;9.648;2023-07-28T20:41:19;6.25;;;3.65;;
18072;SDS011;9161;47.348;9.648;2023-07-28T20:46:27;7.68;;;4.00;;
18072;SDS011;9161;47.348;9.648;2023-07-28T20:51:34;5.55;;;3.92;;
18072;SDS011;9161;47.348;9.648;2023-07-28T20:56:39;10.18;;;4.28;;
18072;SDS011;9161;47.348;9.648;2023-07-28T21:01:46;9.60;;;5.93;;
18072;SDS011;9161;47.348;9.648;2023-07-28T21:06:48;8.65;;;4.80;;
18072;SDS011;9161;47.348;9.648;2023-07-28T21:11:50;6.78;;;4.85;;
18072;SDS011;9161;47.348;9.648;2023-07-28T21:16:54;9.87;;;5.10;;
18072;SDS011;9161;47.348;9.648;2023-07-28T21:21:57;8.90;;;4.37;;
18072;SDS011;9161;47.348;9.648;2023-07-28T21:26:59;6.75;;;4.32;;
18072;SDS011;9161;47.348;9.648;2023-07-28T21:32:04;6.73;;;4.00;;
18072;SDS011;9161;47.348;9.648;2023-07-28T21:37:06;6.20;;;4.10;;
18072;SDS011;9161;47.348;9.648;2023-07-28T21:42:09;6.07;;;3.55;;
18072;SDS011;9161;47.348;9.648;2023-07-28T21:47:13;6.13;;;3.30;;
18072;SDS011;9161;47.348;9.648;2023-07-28T21:52:15;6.13;;;3.80;;
18072;SDS011;9161;47.348;9.648;2023-07-28T21:57:18;5.10;;;3.43;;
18072;SDS011;9161;47.348;9.648;2023-07-28T22:02:23;4.90;;;3.60;;
18072;SDS011;9161;47.348;9.648;2023-07-28T22:07:27;9.23;;;3.67;;
18072;SDS011;9161;47.348;9.648;2023-07-28T22:12:29;11.60;;;4.93;;
18072;SDS011;9161;47.348;9.648;2023-07-28T22:17:33;10.97;;;4.83;;
18072;SDS011;9161;47.348;9.648;2023-07-28T22:22:35;7.37;;;3.30;;
18072;SDS011;9161;47.348;9.648;2023-07-28T22:27:38;5.37;;;2.97;;
18072;SDS011;9161;47.348;9.648;2023-07-28T22:32:41;5.80;;;3.83;;
18072;SDS011;9161;47.348;9.648;2023-07-28T22:37:43;5.23;;;3.30;;
18072;SDS011;9161;47.348;9.648;2023-07-28T22:42:45;4.17;;;3.27;;
18072;SDS011;9161;47.348;9.648;2023-07-28T22:47:49;4.70;;;3.20;;
18072;SDS011;9161;47.348;9.648;2023-07-28T22:52:51;6.13;;;3.53;;
18072;SDS011;9161;47.348;9.648;2023-07-28T22:57:53;5.87;;;3.40;;
18072;SDS011;9161;47.348;9.648;2023-07-28T23:02:57;4.57;;;2.80;;
18072;SDS011;9161;47.348;9.648;2023-07-28T23:07:59;4.97;;;3.00;;
18072;SDS011;9161;47.348;9.648;2023-07-28T23:13:01;5.17;;;2.80;;
18072;SDS011;9161;47.348;9.648;2023-07-28T23:18:06;6.10;;;2.47;;
18072;SDS011;9161;47.348;9.648;2023-07-28T23:23:08;5.10;;;2.70;;
18072;SDS011;9161;47.348;9.648;2023-07-28T23:28:11;3.90;;;2.57;;
18072;SDS011;9161;47.348;9.648;2023-07-28T23:33:15;4.40;;;2.93;;
18072;SDS011;9161;47.348;9.648;2023-07-28T23:38:18;5.47;;;3.20;;
18072;SDS011;9161;47.348;9.648;2023-07-28T23:43:20;5.13;;;3.00;;
18072;SDS011;9161;47.348;9.648;2023-07-28T23:48:25;6.27;;;2.50;;
18072;SDS011;9161;47.348;9.648;2023-07-28T23:53:29;6.10;;;2.90;;
18072;SDS011;9161;47.348;9.648;2023-07-28T23:58:32;7.13;;;2.83;;
